sensor_id;sensor_type;location;lat;lon;timestamp;P1;durP1;ratioP1;P2;durP2;ratioP2
41446;SDS011;27185;52.040;4.490;2023-03-13T00:01:53;30.00;;;6.47;;
41446;SDS011;27185;52.040;4.490;2023-03-13T00:04:39;27.15;;;6.22;;
41446;SDS011;27185;52.040;4.490;2023-03-13T00:07:24;18.17;;;5.07;;
41446;SDS011;27185;52.040;4.490;2023-03-13T00:10:10;19.27;;;5.50;;
41446;SDS011;27185;52.040;4.490;2023-03-13T00:12:56;19.92;;;4.90;;
41446;SDS011;27185;52.040;4.490;2023-03-13T00:15:41;23.90;;;5.97;;
41446;SDS011;27185;52.040;4.490;2023-03-13T00:18:27;24.27;;;6.50;;
41446;SDS011;27185;52.040;4.490;2023-03-13T00:21:13;19.30;;;5.43;;
41446;SDS011;27185;52.040;4.490;2023-03-13T00:23:59;22.13;;;4.30;;
41446;SDS011;27185;52.040;4.490;2023-03-13T00:26:45;21.63;;;5.70;;
41446;SDS011;27185;52.040;4.490;2023-03-13T00:29:31;24.55;;;6.03;;
41446;SDS011;27185;52.040;4.490;2023-03-13T00:32:17;21.30;;;5.60;;
41446;SDS011;27185;52.040;4.490;2023-03-13T00:35:03;18.45;;;5.72;;
41446;SDS011;27185;52.040;4.490;2023-03-13T00:37:49;24.50;;;5.68;;
41446;SDS011;27185;52.040;4.490;2023-03-13T00:40:34;22.38;;;6.28;;
41446;SDS011;27185;52.040;4.490;2023-03-13T00:43:20;20.73;;;6.07;;
41446;SDS011;27185;52.040;4.490;2023-03-13T00:46:06;16.90;;;5.03;;
41446;SDS011;27185;52.040;4.490;2023-03-13T00:48:53;20.60;;;6.20;;
41446;SDS011;27185;52.040;4.490;2023-03-13T00:51:39;17.27;;;5.40;;
41446;SDS011;27185;52.040;4.490;2023-03-13T00:54:25;15.68;;;5.65;;
41446;SDS011;27185;52.040;4.490;2023-03-13T00:57:10;15.65;;;5.30;;
41446;SDS011;27185;52.040;4.490;2023-03-13T00:59:56;13.48;;;5.38;;
41446;SDS011;27185;52.040;4.490;2023-03-13T01:02:42;17.23;;;5.75;;
41446;SDS011;27185;52.040;4.490;2023-03-13T01:05:28;16.13;;;6.97;;
41446;SDS011;27185;52.040;4.490;2023-03-13T01:08:13;22.58;;;6.97;;
41446;SDS011;27185;52.040;4.490;2023-03-13T01:11:00;17.98;;;7.10;;
41446;SDS011;27185;52.040;4.490;2023-03-13T01:13:47;16.73;;;6.90;;
41446;SDS011;27185;52.040;4.490;2023-03-13T01:16:34;15.43;;;7.82;;
41446;SDS011;27185;52.040;4.490;2023-03-13T01:19:20;19.15;;;8.32;;
41446;SDS011;27185;52.040;4.490;2023-03-13T01:22:06;16.90;;;8.95;;
41446;SDS011;27185;52.040;4.490;2023-03-13T01:24:55;22.75;;;10.02;;
41446;SDS011;27185;52.040;4.490;2023-03-13T01:27:40;29.55;;;12.52;;
41446;SDS011;27185;52.040;4.490;2023-03-13T01:30:27;21.45;;;11.38;;
41446;SDS011;27185;52.040;4.490;2023-03-13T01:33:12;21.40;;;11.05;;
41446;SDS011;27185;52.040;4.490;2023-03-13T01:36:02;24.38;;;12.27;;
41446;SDS011;27185;52.040;4.490;2023-03-13T01:38:48;27.02;;;13.80;;
41446;SDS011;27185;52.040;4.490;2023-03-13T01:41:35;22.45;;;13.40;;
41446;SDS011;27185;52.040;4.490;2023-03-13T01:44:23;25.35;;;14.77;;
41446;SDS011;27185;52.040;4.490;2023-03-13T01:47:09;26.02;;;14.45;;
41446;SDS011;27185;52.040;4.490;2023-03-13T01:49:55;27.25;;;15.55;;
41446;SDS011;27185;52.040;4.490;2023-03-13T01:52:41;30.45;;;15.57;;
41446;SDS011;27185;52.040;4.490;2023-03-13T01:55:26;29.25;;;15.88;;
41446;SDS011;27185;52.040;4.490;2023-03-13T01:58:12;28.83;;;16.20;;
41446;SDS011;27185;52.040;4.490;2023-03-13T02:00:58;22.73;;;14.00;;
41446;SDS011;27185;52.040;4.490;2023-03-13T02:03:44;24.42;;;15.90;;
41446;SDS011;27185;52.040;4.490;2023-03-13T02:06:32;20.98;;;13.43;;
41446;SDS011;27185;52.040;4.490;2023-03-13T02:09:23;27.20;;;16.00;;
41446;SDS011;27185;52.040;4.490;2023-03-13T02:12:13;24.27;;;15.15;;
41446;SDS011;27185;52.040;4.490;2023-03-13T02:15:07;19.95;;;14.02;;
41446;SDS011;27185;52.040;4.490;2023-03-13T02:18:04;23.80;;;14.70;;
41446;SDS011;27185;52.040;4.490;2023-03-13T02:20:49;21.02;;;12.73;;
41446;SDS011;27185;52.040;4.490;2023-03-13T02:23:51;27.48;;;12.60;;
41446;SDS011;27185;52.040;4.490;2023-03-13T02:26:52;23.08;;;13.82;;
41446;SDS011;27185;52.040;4.490;2023-03-13T02:29:38;22.63;;;13.57;;
41446;SDS011;27185;52.040;4.490;2023-03-13T02:32:25;21.27;;;12.60;;
41446;SDS011;27185;52.040;4.490;2023-03-13T02:35:14;19.92;;;12.95;;
41446;SDS011;27185;52.040;4.490;2023-03-13T02:38:04;26.50;;;14.15;;
41446;SDS011;27185;52.040;4.490;2023-03-13T02:40:52;24.55;;;12.88;;
41446;SDS011;27185;52.040;4.490;2023-03-13T02:43:39;18.88;;;11.57;;
41446;SDS011;27185;52.040;4.490;2023-03-13T02:46:25;20.88;;;13.00;;
41446;SDS011;27185;52.040;4.490;2023-03-13T02:49:21;19.58;;;10.73;;
41446;SDS011;27185;52.040;4.490;2023-03-13T02:52:17;17.50;;;10.13;;
41446;SDS011;27185;52.040;4.490;2023-03-13T02:55:09;20.00;;;9.50;;
41446;SDS011;27185;52.040;4.490;2023-03-13T02:57:59;16.60;;;9.43;;
41446;SDS011;27185;52.040;4.490;2023-03-13T03:00:45;14.18;;;8.38;;
41446;SDS011;27185;52.040;4.490;2023-03-13T03:03:30;17.85;;;8.07;;
41446;SDS011;27185;52.040;4.490;2023-03-13T03:06:16;14.73;;;7.00;;
41446;SDS011;27185;52.040;4.490;2023-03-13T03:09:02;12.55;;;6.82;;
41446;SDS011;27185;52.040;4.490;2023-03-13T03:11:48;12.68;;;6.07;;
41446;SDS011;27185;52.040;4.490;2023-03-13T03:14:34;10.50;;;5.63;;
41446;SDS011;27185;52.040;4.490;2023-03-13T03:17:20;12.45;;;5.28;;
41446;SDS011;27185;52.040;4.490;2023-03-13T03:20:06;12.02;;;4.95;;
41446;SDS011;27185;52.040;4.490;2023-03-13T03:22:55;11.02;;;4.10;;
41446;SDS011;27185;52.040;4.490;2023-03-13T03:25:41;11.10;;;4.55;;
41446;SDS011;27185;52.040;4.490;2023-03-13T03:28:27;11.98;;;4.47;;
41446;SDS011;27185;52.040;4.490;2023-03-13T03:31:13;12.10;;;4.32;;
41446;SDS011;27185;52.040;4.490;2023-03-13T03:33:59;9.68;;;3.88;;
41446;SDS011;27185;52.040;4.490;2023-03-13T03:36:45;8.48;;;3.92;;
41446;SDS011;27185;52.040;4.490;2023-03-13T03:39:31;14.18;;;4.82;;
41446;SDS011;27185;52.040;4.490;2023-03-13T03:42:16;12.43;;;4.72;;
41446;SDS011;27185;52.040;4.490;2023-03-13T03:45:02;11.90;;;4.55;;
41446;SDS011;27185;52.040;4.490;2023-03-13T03:47:48;8.70;;;4.97;;
41446;SDS011;27185;52.040;4.490;2023-03-13T03:50:33;11.32;;;5.22;;
41446;SDS011;27185;52.040;4.490;2023-03-13T03:53:19;12.68;;;6.43;;
41446;SDS011;27185;52.040;4.490;2023-03-13T03:56:05;14.43;;;5.72;;
41446;SDS011;27185;52.040;4.490;2023-03-13T03:58:51;11.45;;;6.28;;
41446;SDS011;27185;52.040;4.490;2023-03-13T04:01:36;11.65;;;5.57;;
41446;SDS011;27185;52.040;4.490;2023-03-13T04:04:22;13.70;;;7.03;;
41446;SDS011;27185;52.040;4.490;2023-03-13T04:07:08;13.65;;;6.35;;
41446;SDS011;27185;52.040;4.490;2023-03-13T04:09:53;13.77;;;6.60;;
41446;SDS011;27185;52.040;4.490;2023-03-13T04:12:39;11.90;;;7.15;;
41446;SDS011;27185;52.040;4.490;2023-03-13T04:15:24;9.48;;;6.30;;
41446;SDS011;27185;52.040;4.490;2023-03-13T04:18:10;13.32;;;6.43;;
41446;SDS011;27185;52.040;4.490;2023-03-13T04:21:02;12.82;;;6.38;;
41446;SDS011;27185;52.040;4.490;2023-03-13T04:23:49;8.75;;;6.20;;
41446;SDS011;27185;52.040;4.490;2023-03-13T04:26:35;14.10;;;7.10;;
41446;SDS011;27185;52.040;4.490;2023-03-13T04:29:21;11.98;;;7.43;;
41446;SDS011;27185;52.040;4.490;2023-03-13T04:32:06;13.23;;;7.60;;
41446;SDS011;27185;52.040;4.490;2023-03-13T04:34:52;16.95;;;7.63;;
41446;SDS011;27185;52.040;4.490;2023-03-13T04:37:38;10.90;;;6.18;;
41446;SDS011;27185;52.040;4.490;2023-03-13T04:40:23;11.85;;;7.00;;
41446;SDS011;27185;52.040;4.490;2023-03-13T04:43:09;11.10;;;6.00;;
41446;SDS011;27185;52.040;4.490;2023-03-13T04:45:54;16.15;;;6.43;;
41446;SDS011;27185;52.040;4.490;2023-03-13T04:48:40;17.13;;;6.70;;
41446;SDS011;27185;52.040;4.490;2023-03-13T04:51:26;19.20;;;6.10;;
41446;SDS011;27185;52.040;4.490;2023-03-13T04:54:12;13.55;;;6.45;;
41446;SDS011;27185;52.040;4.490;2023-03-13T04:56:57;13.75;;;6.70;;
41446;SDS011;27185;52.040;4.490;2023-03-13T04:59:43;15.93;;;5.97;;
41446;SDS011;27185;52.040;4.490;2023-03-13T05:02:29;17.10;;;5.25;;
41446;SDS011;27185;52.040;4.490;2023-03-13T05:05:14;13.50;;;4.78;;
41446;SDS011;27185;52.040;4.490;2023-03-13T05:08:00;14.10;;;4.97;;
41446;SDS011;27185;52.040;4.490;2023-03-13T05:10:46;13.13;;;4.38;;
41446;SDS011;27185;52.040;4.490;2023-03-13T05:13:31;14.95;;;4.43;;
41446;SDS011;27185;52.040;4.490;2023-03-13T05:16:17;11.48;;;4.10;;
41446;SDS011;27185;52.040;4.490;2023-03-13T05:19:03;20.30;;;4.25;;
41446;SDS011;27185;52.040;4.490;2023-03-13T05:21:48;14.38;;;4.00;;
41446;SDS011;27185;52.040;4.490;2023-03-13T05:24:34;13.10;;;3.65;;
41446;SDS011;27185;52.040;4.490;2023-03-13T05:27:19;10.63;;;3.33;;
41446;SDS011;27185;52.040;4.490;2023-03-13T05:30:05;17.38;;;3.55;;
41446;SDS011;27185;52.040;4.490;2023-03-13T05:32:51;11.57;;;3.72;;
41446;SDS011;27185;52.040;4.490;2023-03-13T05:35:37;19.65;;;4.25;;
41446;SDS011;27185;52.040;4.490;2023-03-13T05:38:24;14.75;;;3.85;;
41446;SDS011;27185;52.040;4.490;2023-03-13T05:41:09;14.13;;;3.63;;
41446;SDS011;27185;52.040;4.490;2023-03-13T05:43:55;16.58;;;3.28;;
41446;SDS011;27185;52.040;4.490;2023-03-13T05:46:41;16.33;;;4.22;;
41446;SDS011;27185;52.040;4.490;2023-03-13T05:49:26;15.43;;;3.50;;
41446;SDS011;27185;52.040;4.490;2023-03-13T05:52:12;11.73;;;3.20;;
41446;SDS011;27185;52.040;4.490;2023-03-13T05:54:57;19.67;;;3.25;;
41446;SDS011;27185;52.040;4.490;2023-03-13T05:57:46;11.55;;;3.42;;
41446;SDS011;27185;52.040;4.490;2023-03-13T06:00:32;12.95;;;3.33;;
41446;SDS011;27185;52.040;4.490;2023-03-13T06:03:19;13.70;;;3.15;;
41446;SDS011;27185;52.040;4.490;2023-03-13T06:06:05;17.45;;;4.72;;
41446;SDS011;27185;52.040;4.490;2023-03-13T06:08:51;13.88;;;3.50;;
41446;SDS011;27185;52.040;4.490;2023-03-13T06:11:40;11.18;;;3.00;;
41446;SDS011;27185;52.040;4.490;2023-03-13T06:14:26;16.52;;;3.63;;
41446;SDS011;27185;52.040;4.490;2023-03-13T06:17:12;13.43;;;3.72;;
41446;SDS011;27185;52.040;4.490;2023-03-13T06:19:57;16.30;;;3.88;;
41446;SDS011;27185;52.040;4.490;2023-03-13T06:22:43;11.30;;;3.30;;
41446;SDS011;27185;52.040;4.490;2023-03-13T06:25:28;12.60;;;3.65;;
41446;SDS011;27185;52.040;4.490;2023-03-13T06:28:14;19.55;;;4.57;;
41446;SDS011;27185;52.040;4.490;2023-03-13T06:31:04;15.57;;;4.47;;
41446;SDS011;27185;52.040;4.490;2023-03-13T06:33:54;20.05;;;4.70;;
41446;SDS011;27185;52.040;4.490;2023-03-13T06:36:40;20.00;;;4.97;;
41446;SDS011;27185;52.040;4.490;2023-03-13T06:39:26;13.85;;;4.40;;
41446;SDS011;27185;52.040;4.490;2023-03-13T06:42:11;17.58;;;4.60;;
41446;SDS011;27185;52.040;4.490;2023-03-13T06:44:57;13.73;;;5.22;;
41446;SDS011;27185;52.040;4.490;2023-03-13T06:47:42;16.25;;;4.78;;
41446;SDS011;27185;52.040;4.490;2023-03-13T06:50:28;12.20;;;4.03;;
41446;SDS011;27185;52.040;4.490;2023-03-13T06:53:15;15.25;;;5.18;;
41446;SDS011;27185;52.040;4.490;2023-03-13T06:56:02;11.50;;;4.10;;
41446;SDS011;27185;52.040;4.490;2023-03-13T06:58:48;14.73;;;4.60;;
41446;SDS011;27185;52.040;4.490;2023-03-13T07:01:34;15.95;;;4.60;;
41446;SDS011;27185;52.040;4.490;2023-03-13T07:04:20;14.70;;;5.22;;
41446;SDS011;27185;52.040;4.490;2023-03-13T07:07:06;18.08;;;5.03;;
41446;SDS011;27185;52.040;4.490;2023-03-13T07:09:51;12.82;;;4.82;;
41446;SDS011;27185;52.040;4.490;2023-03-13T07:12:37;19.27;;;4.80;;
41446;SDS011;27185;52.040;4.490;2023-03-13T07:15:23;12.27;;;4.43;;
41446;SDS011;27185;52.040;4.490;2023-03-13T07:18:08;14.25;;;5.28;;
41446;SDS011;27185;52.040;4.490;2023-03-13T07:20:55;13.05;;;4.70;;
41446;SDS011;27185;52.040;4.490;2023-03-13T07:23:42;14.50;;;4.25;;
41446;SDS011;27185;52.040;4.490;2023-03-13T07:26:27;14.63;;;4.35;;
41446;SDS011;27185;52.040;4.490;2023-03-13T07:29:13;13.07;;;3.72;;
41446;SDS011;27185;52.040;4.490;2023-03-13T07:31:59;11.35;;;4.40;;
41446;SDS011;27185;52.040;4.490;2023-03-13T07:34:45;13.70;;;3.83;;
41446;SDS011;27185;52.040;4.490;2023-03-13T07:37:30;11.35;;;4.43;;
41446;SDS011;27185;52.040;4.490;2023-03-13T07:40:16;12.55;;;3.05;;
41446;SDS011;27185;52.040;4.490;2023-03-13T07:43:02;12.70;;;3.05;;
41446;SDS011;27185;52.040;4.490;2023-03-13T07:45:51;11.43;;;3.83;;
41446;SDS011;27185;52.040;4.490;2023-03-13T07:48:41;13.15;;;3.17;;
41446;SDS011;27185;52.040;4.490;2023-03-13T07:51:27;10.18;;;3.35;;
41446;SDS011;27185;52.040;4.490;2023-03-13T07:54:13;10.77;;;2.78;;
41446;SDS011;27185;52.040;4.490;2023-03-13T07:57:00;11.55;;;2.83;;
41446;SDS011;27185;52.040;4.490;2023-03-13T07:59:46;11.60;;;3.38;;
41446;SDS011;27185;52.040;4.490;2023-03-13T08:02:32;8.52;;;2.20;;
41446;SDS011;27185;52.040;4.490;2023-03-13T08:05:18;8.45;;;2.28;;
41446;SDS011;27185;52.040;4.490;2023-03-13T08:08:03;12.48;;;3.20;;
41446;SDS011;27185;52.040;4.490;2023-03-13T08:10:49;8.75;;;2.50;;
41446;SDS011;27185;52.040;4.490;2023-03-13T08:13:35;12.07;;;2.00;;
41446;SDS011;27185;52.040;4.490;2023-03-13T08:16:22;7.20;;;2.00;;
41446;SDS011;27185;52.040;4.490;2023-03-13T08:19:11;9.52;;;2.40;;
41446;SDS011;27185;52.040;4.490;2023-03-13T08:21:57;6.10;;;1.90;;
41446;SDS011;27185;52.040;4.490;2023-03-13T08:24:43;11.13;;;1.95;;
41446;SDS011;27185;52.040;4.490;2023-03-13T08:27:28;9.55;;;1.73;;
41446;SDS011;27185;52.040;4.490;2023-03-13T08:30:14;10.57;;;2.03;;
41446;SDS011;27185;52.040;4.490;2023-03-13T08:33:00;5.75;;;1.92;;
41446;SDS011;27185;52.040;4.490;2023-03-13T08:35:45;7.60;;;1.85;;
41446;SDS011;27185;52.040;4.490;2023-03-13T08:38:31;10.25;;;1.80;;
41446;SDS011;27185;52.040;4.490;2023-03-13T08:41:18;9.80;;;1.83;;
41446;SDS011;27185;52.040;4.490;2023-03-13T08:44:06;12.32;;;1.67;;
41446;SDS011;27185;52.040;4.490;2023-03-13T08:46:52;11.67;;;1.60;;
41446;SDS011;27185;52.040;4.490;2023-03-13T08:49:38;8.90;;;1.52;;
41446;SDS011;27185;52.040;4.490;2023-03-13T08:52:24;11.63;;;2.08;;
41446;SDS011;27185;52.040;4.490;2023-03-13T08:55:10;13.20;;;1.75;;
41446;SDS011;27185;52.040;4.490;2023-03-13T08:57:56;12.70;;;1.88;;
41446;SDS011;27185;52.040;4.490;2023-03-13T09:00:41;12.50;;;2.15;;
41446;SDS011;27185;52.040;4.490;2023-03-13T09:03:27;11.73;;;2.00;;
41446;SDS011;27185;52.040;4.490;2023-03-13T09:06:13;13.70;;;1.42;;
41446;SDS011;27185;52.040;4.490;2023-03-13T09:08:59;17.60;;;1.90;;
41446;SDS011;27185;52.040;4.490;2023-03-13T09:11:44;15.98;;;2.63;;
41446;SDS011;27185;52.040;4.490;2023-03-13T09:14:30;11.25;;;2.20;;
41446;SDS011;27185;52.040;4.490;2023-03-13T09:17:16;13.07;;;2.35;;
41446;SDS011;27185;52.040;4.490;2023-03-13T09:20:01;9.30;;;1.65;;
41446;SDS011;27185;52.040;4.490;2023-03-13T09:22:48;12.30;;;2.25;;
41446;SDS011;27185;52.040;4.490;2023-03-13T09:25:36;10.27;;;1.70;;
41446;SDS011;27185;52.040;4.490;2023-03-13T09:31:10;7.90;;;1.52;;
41446;SDS011;27185;52.040;4.490;2023-03-13T09:34:00;6.63;;;1.70;;
41446;SDS011;27185;52.040;4.490;2023-03-13T09:36:46;10.05;;;1.30;;
41446;SDS011;27185;52.040;4.490;2023-03-13T09:39:32;8.63;;;1.58;;
41446;SDS011;27185;52.040;4.490;2023-03-13T09:42:19;7.88;;;1.25;;
41446;SDS011;27185;52.040;4.490;2023-03-13T09:45:11;8.98;;;1.40;;
41446;SDS011;27185;52.040;4.490;2023-03-13T09:51:23;10.55;;;1.20;;
41446;SDS011;27185;52.040;4.490;2023-03-13T09:57:29;7.75;;;1.63;;
41446;SDS011;27185;52.040;4.490;2023-03-13T10:00:39;7.80;;;1.40;;
41446;SDS011;27185;52.040;4.490;2023-03-13T10:03:28;6.63;;;1.00;;
41446;SDS011;27185;52.040;4.490;2023-03-13T10:06:19;8.10;;;1.15;;
41446;SDS011;27185;52.040;4.490;2023-03-13T10:09:17;5.18;;;1.02;;
41446;SDS011;27185;52.040;4.490;2023-03-13T10:15:06;5.32;;;1.02;;
41446;SDS011;27185;52.040;4.490;2023-03-13T10:18:14;3.15;;;0.63;;
41446;SDS011;27185;52.040;4.490;2023-03-13T10:21:11;6.60;;;1.25;;
41446;SDS011;27185;52.040;4.490;2023-03-13T10:27:13;7.68;;;1.30;;
41446;SDS011;27185;52.040;4.490;2023-03-13T10:30:00;11.52;;;1.88;;
41446;SDS011;27185;52.040;4.490;2023-03-13T10:32:45;9.45;;;1.40;;
41446;SDS011;27185;52.040;4.490;2023-03-13T10:35:35;13.40;;;2.30;;
41446;SDS011;27185;52.040;4.490;2023-03-13T10:38:22;13.07;;;1.90;;
41446;SDS011;27185;52.040;4.490;2023-03-13T10:41:17;14.05;;;1.90;;
41446;SDS011;27185;52.040;4.490;2023-03-13T10:47:01;10.40;;;1.65;;
41446;SDS011;27185;52.040;4.490;2023-03-13T10:49:49;12.43;;;2.20;;
41446;SDS011;27185;52.040;4.490;2023-03-13T10:52:45;9.70;;;1.50;;
41446;SDS011;27185;52.040;4.490;2023-03-13T10:55:32;10.77;;;1.48;;
41446;SDS011;27185;52.040;4.490;2023-03-13T10:58:19;10.50;;;2.00;;
41446;SDS011;27185;52.040;4.490;2023-03-13T11:01:39;8.65;;;1.20;;
41446;SDS011;27185;52.040;4.490;2023-03-13T11:04:30;14.10;;;2.20;;
41446;SDS011;27185;52.040;4.490;2023-03-13T11:07:25;10.27;;;1.98;;
41446;SDS011;27185;52.040;4.490;2023-03-13T11:10:22;14.57;;;2.25;;
41446;SDS011;27185;52.040;4.490;2023-03-13T11:13:09;13.38;;;2.10;;
41446;SDS011;27185;52.040;4.490;2023-03-13T11:16:16;14.82;;;2.25;;
41446;SDS011;27185;52.040;4.490;2023-03-13T11:27:50;15.07;;;2.75;;
41446;SDS011;27185;52.040;4.490;2023-03-13T11:37:00;17.08;;;2.92;;
41446;SDS011;27185;52.040;4.490;2023-03-13T11:40:02;15.55;;;2.75;;
41446;SDS011;27185;52.040;4.490;2023-03-13T11:43:46;16.58;;;2.90;;
41446;SDS011;27185;52.040;4.490;2023-03-13T11:46:50;15.80;;;2.92;;
41446;SDS011;27185;52.040;4.490;2023-03-13T11:49:47;13.98;;;2.58;;
41446;SDS011;27185;52.040;4.490;2023-03-13T11:56:13;21.90;;;3.55;;
41446;SDS011;27185;52.040;4.490;2023-03-13T12:02:30;17.33;;;3.42;;
41446;SDS011;27185;52.040;4.490;2023-03-13T12:05:19;22.67;;;3.65;;
41446;SDS011;27185;52.040;4.490;2023-03-13T12:08:06;20.15;;;3.78;;
41446;SDS011;27185;52.040;4.490;2023-03-13T12:11:46;21.13;;;3.70;;
41446;SDS011;27185;52.040;4.490;2023-03-13T12:14:22;19.23;;;2.95;;
41446;SDS011;27185;52.040;4.490;2023-03-13T12:17:32;19.05;;;3.92;;
41446;SDS011;27185;52.040;4.490;2023-03-13T12:20:38;21.77;;;3.47;;
41446;SDS011;27185;52.040;4.490;2023-03-13T12:27:08;22.42;;;3.78;;
41446;SDS011;27185;52.040;4.490;2023-03-13T12:29:50;18.98;;;3.60;;
41446;SDS011;27185;52.040;4.490;2023-03-13T12:32:55;20.92;;;3.75;;
41446;SDS011;27185;52.040;4.490;2023-03-13T12:35:53;22.70;;;3.58;;
41446;SDS011;27185;52.040;4.490;2023-03-13T12:38:52;17.38;;;3.13;;
41446;SDS011;27185;52.040;4.490;2023-03-13T12:41:46;23.90;;;4.20;;
41446;SDS011;27185;52.040;4.490;2023-03-13T12:44:38;17.88;;;4.03;;
41446;SDS011;27185;52.040;4.490;2023-03-13T12:53:27;15.88;;;3.05;;
41446;SDS011;27185;52.040;4.490;2023-03-13T12:56:34;19.50;;;3.90;;
41446;SDS011;27185;52.040;4.490;2023-03-13T12:59:48;28.10;;;4.53;;
41446;SDS011;27185;52.040;4.490;2023-03-13T13:02:39;16.55;;;3.92;;
41446;SDS011;27185;52.040;4.490;2023-03-13T13:05:25;23.15;;;4.47;;
41446;SDS011;27185;52.040;4.490;2023-03-13T13:08:21;17.88;;;3.38;;
41446;SDS011;27185;52.040;4.490;2023-03-13T13:17:14;28.40;;;4.40;;
41446;SDS011;27185;52.040;4.490;2023-03-13T13:26:58;20.13;;;4.72;;
41446;SDS011;27185;52.040;4.490;2023-03-13T13:32:34;24.13;;;4.70;;
41446;SDS011;27185;52.040;4.490;2023-03-13T13:47:18;21.27;;;4.00;;
41446;SDS011;27185;52.040;4.490;2023-03-13T13:50:16;24.58;;;4.70;;
41446;SDS011;27185;52.040;4.490;2023-03-13T13:53:24;28.38;;;5.03;;
41446;SDS011;27185;52.040;4.490;2023-03-13T14:04:59;24.35;;;5.22;;
41446;SDS011;27185;52.040;4.490;2023-03-13T14:08:30;22.98;;;4.97;;
41446;SDS011;27185;52.040;4.490;2023-03-13T14:14:13;24.80;;;4.47;;
41446;SDS011;27185;52.040;4.490;2023-03-13T14:17:03;25.95;;;3.97;;
41446;SDS011;27185;52.040;4.490;2023-03-13T14:19:53;25.88;;;4.43;;
41446;SDS011;27185;52.040;4.490;2023-03-13T14:22:44;23.83;;;4.57;;
41446;SDS011;27185;52.040;4.490;2023-03-13T14:26:31;25.08;;;5.13;;
41446;SDS011;27185;52.040;4.490;2023-03-13T14:29:01;26.30;;;5.07;;
41446;SDS011;27185;52.040;4.490;2023-03-13T14:31:54;19.88;;;4.60;;
41446;SDS011;27185;52.040;4.490;2023-03-13T14:34:41;25.20;;;4.22;;
41446;SDS011;27185;52.040;4.490;2023-03-13T14:37:32;22.70;;;4.55;;
41446;SDS011;27185;52.040;4.490;2023-03-13T14:40:38;22.65;;;4.55;;
41446;SDS011;27185;52.040;4.490;2023-03-13T14:43:39;20.02;;;4.05;;
41446;SDS011;27185;52.040;4.490;2023-03-13T14:46:30;18.92;;;3.70;;
41446;SDS011;27185;52.040;4.490;2023-03-13T14:49:18;23.05;;;4.65;;
41446;SDS011;27185;52.040;4.490;2023-03-13T14:52:20;23.90;;;4.32;;
41446;SDS011;27185;52.040;4.490;2023-03-13T15:04:08;19.63;;;4.07;;
41446;SDS011;27185;52.040;4.490;2023-03-13T15:07:00;24.38;;;5.38;;
41446;SDS011;27185;52.040;4.490;2023-03-13T15:09:47;18.83;;;3.95;;
41446;SDS011;27185;52.040;4.490;2023-03-13T15:12:34;23.67;;;5.18;;
41446;SDS011;27185;52.040;4.490;2023-03-13T15:15:27;27.02;;;4.82;;
41446;SDS011;27185;52.040;4.490;2023-03-13T15:18:23;20.33;;;4.10;;
41446;SDS011;27185;52.040;4.490;2023-03-13T15:24:02;25.17;;;4.78;;
41446;SDS011;27185;52.040;4.490;2023-03-13T15:26:57;22.65;;;4.65;;
41446;SDS011;27185;52.040;4.490;2023-03-13T15:29:43;23.13;;;5.47;;
41446;SDS011;27185;52.040;4.490;2023-03-13T15:32:31;22.40;;;4.97;;
41446;SDS011;27185;52.040;4.490;2023-03-13T15:38:17;20.30;;;3.72;;
41446;SDS011;27185;52.040;4.490;2023-03-13T15:41:05;23.70;;;5.03;;
41446;SDS011;27185;52.040;4.490;2023-03-13T15:46:40;18.83;;;4.38;;
41446;SDS011;27185;52.040;4.490;2023-03-13T15:49:26;25.08;;;4.75;;
41446;SDS011;27185;52.040;4.490;2023-03-13T15:52:13;23.30;;;4.47;;
41446;SDS011;27185;52.040;4.490;2023-03-13T15:55:02;23.73;;;4.28;;
41446;SDS011;27185;52.040;4.490;2023-03-13T15:57:51;18.85;;;3.83;;
41446;SDS011;27185;52.040;4.490;2023-03-13T16:00:36;22.75;;;4.75;;
41446;SDS011;27185;52.040;4.490;2023-03-13T16:03:24;19.95;;;3.85;;
41446;SDS011;27185;52.040;4.490;2023-03-13T16:06:18;26.40;;;4.07;;
41446;SDS011;27185;52.040;4.490;2023-03-13T16:09:12;19.10;;;4.88;;
41446;SDS011;27185;52.040;4.490;2023-03-13T16:11:58;23.63;;;3.90;;
41446;SDS011;27185;52.040;4.490;2023-03-13T16:14:43;26.30;;;4.97;;
41446;SDS011;27185;52.040;4.490;2023-03-13T16:17:29;24.50;;;4.20;;
41446;SDS011;27185;52.040;4.490;2023-03-13T16:20:17;19.27;;;3.78;;
41446;SDS011;27185;52.040;4.490;2023-03-13T16:23:05;21.05;;;4.20;;
41446;SDS011;27185;52.040;4.490;2023-03-13T16:25:50;21.35;;;4.10;;
41446;SDS011;27185;52.040;4.490;2023-03-13T16:28:36;21.23;;;4.50;;
41446;SDS011;27185;52.040;4.490;2023-03-13T16:31:26;24.05;;;4.65;;
41446;SDS011;27185;52.040;4.490;2023-03-13T16:34:15;25.70;;;4.18;;
41446;SDS011;27185;52.040;4.490;2023-03-13T16:37:08;27.75;;;5.10;;
41446;SDS011;27185;52.040;4.490;2023-03-13T16:39:58;28.13;;;5.75;;
41446;SDS011;27185;52.040;4.490;2023-03-13T16:42:45;26.30;;;4.68;;
41446;SDS011;27185;52.040;4.490;2023-03-13T16:45:30;26.13;;;5.00;;
41446;SDS011;27185;52.040;4.490;2023-03-13T16:48:16;25.50;;;5.72;;
41446;SDS011;27185;52.040;4.490;2023-03-13T16:51:03;28.52;;;5.20;;
41446;SDS011;27185;52.040;4.490;2023-03-13T16:53:50;33.25;;;5.55;;
41446;SDS011;27185;52.040;4.490;2023-03-13T16:56:38;30.48;;;5.50;;
41446;SDS011;27185;52.040;4.490;2023-03-13T16:59:26;28.25;;;4.30;;
41446;SDS011;27185;52.040;4.490;2023-03-13T17:02:15;24.52;;;4.93;;
41446;SDS011;27185;52.040;4.490;2023-03-13T17:05:02;30.90;;;5.00;;
41446;SDS011;27185;52.040;4.490;2023-03-13T17:07:48;42.08;;;6.05;;
41446;SDS011;27185;52.040;4.490;2023-03-13T17:10:35;39.33;;;5.70;;
41446;SDS011;27185;52.040;4.490;2023-03-13T17:13:20;22.92;;;4.75;;
41446;SDS011;27185;52.040;4.490;2023-03-13T17:16:11;31.73;;;6.20;;
41446;SDS011;27185;52.040;4.490;2023-03-13T17:18:59;24.75;;;5.28;;
41446;SDS011;27185;52.040;4.490;2023-03-13T17:21:45;37.63;;;6.57;;
41446;SDS011;27185;52.040;4.490;2023-03-13T17:24:31;32.53;;;6.03;;
41446;SDS011;27185;52.040;4.490;2023-03-13T17:27:16;34.60;;;5.80;;
41446;SDS011;27185;52.040;4.490;2023-03-13T17:30:03;37.65;;;5.80;;
41446;SDS011;27185;52.040;4.490;2023-03-13T17:33:01;32.05;;;5.40;;
41446;SDS011;27185;52.040;4.490;2023-03-13T17:35:47;29.67;;;5.90;;
41446;SDS011;27185;52.040;4.490;2023-03-13T17:38:32;35.33;;;6.53;;
41446;SDS011;27185;52.040;4.490;2023-03-13T17:41:19;32.72;;;5.53;;
41446;SDS011;27185;52.040;4.490;2023-03-13T17:44:09;28.73;;;5.65;;
41446;SDS011;27185;52.040;4.490;2023-03-13T17:46:55;25.27;;;4.68;;
41446;SDS011;27185;52.040;4.490;2023-03-13T17:49:41;32.42;;;5.72;;
41446;SDS011;27185;52.040;4.490;2023-03-13T17:52:27;18.60;;;4.80;;
41446;SDS011;27185;52.040;4.490;2023-03-13T17:55:13;33.03;;;6.15;;
41446;SDS011;27185;52.040;4.490;2023-03-13T17:57:59;35.33;;;6.00;;
41446;SDS011;27185;52.040;4.490;2023-03-13T18:00:44;26.30;;;5.25;;
41446;SDS011;27185;52.040;4.490;2023-03-13T18:03:31;31.55;;;5.00;;
41446;SDS011;27185;52.040;4.490;2023-03-13T18:06:18;28.48;;;5.38;;
41446;SDS011;27185;52.040;4.490;2023-03-13T18:09:19;29.67;;;5.18;;
41446;SDS011;27185;52.040;4.490;2023-03-13T18:12:07;25.80;;;4.75;;
41446;SDS011;27185;52.040;4.490;2023-03-13T18:14:55;23.63;;;5.45;;
41446;SDS011;27185;52.040;4.490;2023-03-13T18:17:40;23.20;;;4.97;;
41446;SDS011;27185;52.040;4.490;2023-03-13T18:20:28;21.30;;;4.90;;
41446;SDS011;27185;52.040;4.490;2023-03-13T18:23:15;26.08;;;4.63;;
41446;SDS011;27185;52.040;4.490;2023-03-13T18:26:01;29.60;;;4.50;;
41446;SDS011;27185;52.040;4.490;2023-03-13T18:28:56;27.30;;;5.38;;
41446;SDS011;27185;52.040;4.490;2023-03-13T18:31:45;29.40;;;5.03;;